createdAt,value
2022-10-02T00:02:02.306Z,86.31
2022-10-02T00:04:35.287Z,86.28
2022-10-02T00:07:08.556Z,86.14
2022-10-02T00:09:43.471Z,86.08
2022-10-02T00:12:15.411Z,86.06
2022-10-02T00:14:47.853Z,86.13
2022-10-02T00:17:21.555Z,85.89
2022-10-02T00:19:54.328Z,86.04
2022-10-02T00:22:31.440Z,85.93
2022-10-02T00:25:07.104Z,85.86
2022-10-02T00:27:45.670Z,85.82
2022-10-02T00:30:18.142Z,85.46
2022-10-02T00:33:02.361Z,85.52
2022-10-02T00:35:41.179Z,85.38
2022-10-02T00:38:22.717Z,85.53
2022-10-02T00:41:15.152Z,85.21
2022-10-02T00:43:57.812Z,85.31
2022-10-02T00:46:38.852Z,85.38
2022-10-02T00:49:30.097Z,85.33
2022-10-02T00:52:08.584Z,85.16
2022-10-02T00:54:57.615Z,85.05
2022-10-02T00:57:39.938Z,84.72
2022-10-02T01:00:12.661Z,84.79
2022-10-02T01:03:12.747Z,84.77
2022-10-02T01:05:41.168Z,84.59
2022-10-02T01:08:09.618Z,84.63
2022-10-02T01:10:39.138Z,84.48
2022-10-02T01:13:08.361Z,84.71
2022-10-02T01:15:39.257Z,84.44
2022-10-02T01:18:12.006Z,84.50
2022-10-02T01:20:43.422Z,84.39
2022-10-02T01:23:24.499Z,84.29
2022-10-02T01:25:54.380Z,84.09
2022-10-02T01:28:23.400Z,83.95
2022-10-02T01:30:55.946Z,83.79
2022-10-02T01:33:25.782Z,83.67
2022-10-02T01:35:54.229Z,83.89
2022-10-02T01:38:24.676Z,83.56
2022-10-02T01:40:54.603Z,83.36
2022-10-02T01:43:28.157Z,83.25
2022-10-02T01:46:08.692Z,83.04
2022-10-02T01:48:46.100Z,83.11
2022-10-02T01:51:25.730Z,82.74
2022-10-02T01:54:05.964Z,82.60
2022-10-02T01:56:44.911Z,82.22
2022-10-02T01:59:24.913Z,82.45
2022-10-02T02:02:03.453Z,82.13
2022-10-02T02:04:42.698Z,82.09
2022-10-02T02:07:17.664Z,81.96
2022-10-02T02:09:57.412Z,81.74
2022-10-02T02:12:38.199Z,81.48
2022-10-02T02:15:12.657Z,81.49
2022-10-02T02:17:49.450Z,81.68
2022-10-02T02:20:22.754Z,81.53
2022-10-02T02:22:54.317Z,81.37
2022-10-02T02:25:27.205Z,81.23
2022-10-02T02:28:00.979Z,80.98
2022-10-02T02:30:32.693Z,81.23
2022-10-02T02:33:05.786Z,80.90
2022-10-02T02:35:38.900Z,80.81
2022-10-02T02:38:10.762Z,80.82
2022-10-02T02:40:43.067Z,80.62
2022-10-02T02:43:17.990Z,80.64
2022-10-02T02:45:51.180Z,80.80
2022-10-02T02:48:23.839Z,80.67
2022-10-02T02:50:56.210Z,80.40
2022-10-02T02:53:29.146Z,80.45
2022-10-02T02:56:00.809Z,80.30
2022-10-02T02:58:37.225Z,80.62
2022-10-02T03:01:05.675Z,80.71
2022-10-02T03:03:34.035Z,80.29
2022-10-02T03:06:08.389Z,80.24
2022-10-02T03:08:38.262Z,80.34
2022-10-02T03:11:18.643Z,79.98
2022-10-02T03:14:02.289Z,80.17
2022-10-02T03:16:44.629Z,80.08
2022-10-02T03:19:29.207Z,80.06
2022-10-02T03:22:05.831Z,80.24
2022-10-02T03:24:41.592Z,80.17
2022-10-02T03:27:14.320Z,80.30
2022-10-02T03:29:50.417Z,80.03
2022-10-02T03:32:21.239Z,80.36
2022-10-02T03:34:49.638Z,79.98
2022-10-02T03:37:18.734Z,79.76
2022-10-02T03:39:47.361Z,79.60
2022-10-02T03:42:26.079Z,79.77
2022-10-02T03:44:55.774Z,79.47
2022-10-02T03:47:24.175Z,79.57
2022-10-02T03:49:52.534Z,79.86
2022-10-02T03:52:24.315Z,80.12
2022-10-02T03:54:56.812Z,79.94
2022-10-02T03:57:26.691Z,80.04
2022-10-02T04:00:03.260Z,80.08
2022-10-02T04:02:38.931Z,79.98
2022-10-02T04:05:18.895Z,80.15
2022-10-02T04:07:52.945Z,80.22
2022-10-02T04:10:31.335Z,80.32
2022-10-02T04:13:08.858Z,80.46
2022-10-02T04:15:53.345Z,80.73
2022-10-02T04:18:25.986Z,80.72
2022-10-02T04:20:59.588Z,80.98
2022-10-02T04:23:34.412Z,81.15
2022-10-02T04:26:08.688Z,81.11
2022-10-02T04:28:41.282Z,81.28
2022-10-02T04:31:13.268Z,81.20
2022-10-02T04:33:42.043Z,81.24
2022-10-02T04:36:22.715Z,81.68
2022-10-02T04:39:07.052Z,81.80
2022-10-02T04:41:53.264Z,81.55
2022-10-02T04:44:33.984Z,81.72
2022-10-02T04:47:25.589Z,81.70
2022-10-02T04:50:10.586Z,81.91
2022-10-02T04:53:00.547Z,82.20
2022-10-02T04:56:04.570Z,81.73
2022-10-02T04:58:53.567Z,82.01
2022-10-02T05:01:31.353Z,81.82
2022-10-02T05:04:31.964Z,82.06
2022-10-02T05:07:13.785Z,82.15
2022-10-02T05:09:53.683Z,82.17
2022-10-02T05:12:44.715Z,82.33
2022-10-02T05:15:25.526Z,82.47
2022-10-02T05:18:18.117Z,82.38
2022-10-02T05:21:13.584Z,82.54
2022-10-02T05:23:55.735Z,82.50
2022-10-02T05:26:42.999Z,82.62
2022-10-02T05:29:32.478Z,82.40
2022-10-02T05:32:17.146Z,82.50
2022-10-02T05:35:02.392Z,82.20
2022-10-02T05:37:50.832Z,81.97
2022-10-02T05:40:25.128Z,81.89
2022-10-02T05:43:02.912Z,81.58
2022-10-02T05:45:36.495Z,81.60
2022-10-02T05:48:13.475Z,81.38
2022-10-02T05:50:42.679Z,81.56
2022-10-02T05:53:26.138Z,81.53
2022-10-02T05:56:01.131Z,81.32
2022-10-02T05:58:34.934Z,81.70
2022-10-02T06:01:11.156Z,81.81
2022-10-02T06:03:43.854Z,81.72
2022-10-02T06:06:18.731Z,81.67
2022-10-02T06:08:54.397Z,81.87
2022-10-02T06:11:27.988Z,82.17
2022-10-02T06:14:00.625Z,82.24
2022-10-02T06:16:34.382Z,82.02
2022-10-02T06:19:12.642Z,82.12
2022-10-02T06:21:49.270Z,82.16
2022-10-02T06:24:25.431Z,82.53
2022-10-02T06:27:00.684Z,82.54
2022-10-02T06:29:34.559Z,82.88
2022-10-02T06:32:15.404Z,82.55
2022-10-02T06:34:47.999Z,82.98
2022-10-02T06:37:33.539Z,82.89
2022-10-02T06:40:20.086Z,83.22
2022-10-02T06:42:58.549Z,83.20
2022-10-02T06:45:39.094Z,83.44
2022-10-02T06:48:26.674Z,83.76
2022-10-02T06:51:01.976Z,83.76
2022-10-02T06:53:50.611Z,83.71
2022-10-02T06:56:43.479Z,83.46
2022-10-02T06:59:26.382Z,83.69
2022-10-02T07:02:00.981Z,83.75
2022-10-02T07:04:47.993Z,83.86
2022-10-02T07:07:35.224Z,83.61
2022-10-02T07:10:15.222Z,83.85
2022-10-02T07:13:02.929Z,84.08
2022-10-02T07:15:53.371Z,84.35
2022-10-02T07:18:32.692Z,84.11
2022-10-02T07:21:11.348Z,84.54
2022-10-02T07:23:48.612Z,84.77
2022-10-02T07:26:47.790Z,85.02
2022-10-02T07:29:30.383Z,84.75
2022-10-02T07:32:19.041Z,84.94
2022-10-02T07:34:59.139Z,84.93
2022-10-02T07:37:36.665Z,85.04
2022-10-02T07:40:25.675Z,85.05
2022-10-02T07:43:11.432Z,85.28
2022-10-02T07:45:42.699Z,85.51
2022-10-02T07:48:33.945Z,85.41
2022-10-02T07:51:31.454Z,85.69
2022-10-02T07:54:09.432Z,85.78
2022-10-02T07:56:38.786Z,85.73
2022-10-02T07:59:13.019Z,86.25
2022-10-02T08:01:44.432Z,86.17
2022-10-02T08:04:18.802Z,86.12
2022-10-02T08:06:48.864Z,86.19
2022-10-02T08:09:23.986Z,86.13
2022-10-02T08:11:57.913Z,86.31
2022-10-02T08:14:32.457Z,86.22
2022-10-02T08:17:10.857Z,86.48
2022-10-02T08:19:43.359Z,86.40
2022-10-02T08:22:22.874Z,86.43
2022-10-02T08:24:56.434Z,86.66
2022-10-02T08:27:30.347Z,86.68
2022-10-02T08:30:03.862Z,86.88
2022-10-02T08:32:37.383Z,86.71
2022-10-02T08:35:12.017Z,86.74
2022-10-02T08:37:48.011Z,86.73
2022-10-02T08:40:39.079Z,86.80
2022-10-02T08:43:48.595Z,87.21
2022-10-02T08:46:50.406Z,87.08
2022-10-02T08:50:02.510Z,87.07
2022-10-02T08:52:56.552Z,87.10
2022-10-02T08:55:55.587Z,87.29
2022-10-02T08:58:59.260Z,87.38
2022-10-02T09:02:00.095Z,87.55
2022-10-02T09:05:05.387Z,87.67
2022-10-02T09:08:12.203Z,87.82
2022-10-02T09:11:17.514Z,87.75
2022-10-02T09:14:24.717Z,87.78
2022-10-02T09:17:15.438Z,87.81
2022-10-02T09:19:58.034Z,87.97
2022-10-02T09:22:58.933Z,88.20
2022-10-02T09:25:37.083Z,87.95
2022-10-02T09:28:52.923Z,88.12
2022-10-02T09:31:44.671Z,88.14
2022-10-02T09:34:48.502Z,88.19
2022-10-02T09:37:54.533Z,88.19
2022-10-02T09:40:53.185Z,88.30
2022-10-02T09:44:03.621Z,88.14
2022-10-02T09:46:59.037Z,88.14
2022-10-02T09:50:00.682Z,88.13
2022-10-02T09:52:51.237Z,87.90
2022-10-02T09:55:57.758Z,87.94
2022-10-02T09:58:56.421Z,87.74
2022-10-02T10:01:43.369Z,87.58
2022-10-02T10:05:01.311Z,87.66
2022-10-02T10:08:02.725Z,87.50
2022-10-02T10:11:03.523Z,87.35
2022-10-02T10:14:07.667Z,87.29
2022-10-02T10:17:20.470Z,87.47
2022-10-02T10:20:33.595Z,87.13
2022-10-02T10:23:14.517Z,87.08
2022-10-02T10:25:59.203Z,86.91
2022-10-02T10:29:09.584Z,86.71
2022-10-02T10:32:24.380Z,86.49
2022-10-02T10:35:18.821Z,86.58
2022-10-02T10:38:14.261Z,86.10
2022-10-02T10:41:15.336Z,86.36
2022-10-02T10:44:19.196Z,86.10
2022-10-02T10:47:18.254Z,86.24
2022-10-02T10:50:21.791Z,86.23
2022-10-02T10:53:37.251Z,86.00
2022-10-02T10:56:39.687Z,86.10
2022-10-02T10:59:29.679Z,86.03
2022-10-02T11:02:20.796Z,86.06
2022-10-02T11:05:09.789Z,86.10
2022-10-02T11:08:02.558Z,86.02
2022-10-02T11:10:47.134Z,85.62
2022-10-02T11:13:33.849Z,85.27
2022-10-02T11:16:34.635Z,84.96
2022-10-02T11:19:43.616Z,84.58
2022-10-02T11:22:26.555Z,84.38
2022-10-02T11:25:21.252Z,84.25
2022-10-02T11:28:12.377Z,84.12
2022-10-02T11:30:52.129Z,83.73
2022-10-02T11:33:49.662Z,83.52
2022-10-02T11:36:42.788Z,83.61
2022-10-02T11:39:17.427Z,83.83
2022-10-02T11:42:05.933Z,84.09
2022-10-02T11:44:58.520Z,83.99
2022-10-02T11:47:46.649Z,84.27
2022-10-02T11:50:39.723Z,84.17
2022-10-02T11:53:32.123Z,84.03
2022-10-02T11:56:15.404Z,84.12
2022-10-02T11:58:56.450Z,83.98
2022-10-02T12:01:35.972Z,84.09
2022-10-02T12:04:30.411Z,83.98
2022-10-02T12:07:21.274Z,83.98
2022-10-02T12:10:04.555Z,83.86
2022-10-02T12:12:51.627Z,83.58
2022-10-02T12:15:31.520Z,83.74
2022-10-02T12:18:25.279Z,84.02
2022-10-02T12:21:27.737Z,84.16
2022-10-02T12:24:20.821Z,84.21
2022-10-02T12:26:59.620Z,84.53
2022-10-02T12:29:47.233Z,84.66
2022-10-02T12:32:28.043Z,84.99
2022-10-02T12:35:17.770Z,85.08
2022-10-02T12:37:57.593Z,85.22
2022-10-02T12:40:34.537Z,85.50
2022-10-02T12:43:40.498Z,85.70
2022-10-02T12:46:26.450Z,85.79
2022-10-02T12:49:15.062Z,85.71
2022-10-02T12:52:00.822Z,85.75
2022-10-02T12:55:04.602Z,85.74
2022-10-02T12:58:04.795Z,85.64
2022-10-02T13:00:51.265Z,85.60
2022-10-02T13:04:00.961Z,85.74
2022-10-02T13:07:00.498Z,85.77
2022-10-02T13:09:41.347Z,85.78
2022-10-02T13:12:20.466Z,85.62
2022-10-02T13:15:11.801Z,85.85
2022-10-02T13:17:47.852Z,86.18
2022-10-02T13:20:28.218Z,86.00
2022-10-02T13:23:08.985Z,86.34
2022-10-02T13:26:04.163Z,86.77
2022-10-02T13:28:57.166Z,86.80
2022-10-02T13:31:39.941Z,86.96
2022-10-02T13:34:26.101Z,87.20
2022-10-02T13:37:13.203Z,87.31
2022-10-02T13:40:03.616Z,87.41
2022-10-02T13:42:42.940Z,87.62
2022-10-02T13:45:19.218Z,87.90
2022-10-02T13:47:59.654Z,88.21
2022-10-02T13:50:42.547Z,88.37
2022-10-02T13:53:36.702Z,88.43
2022-10-02T13:56:18.263Z,88.79
2022-10-02T13:59:11.306Z,88.90
2022-10-02T14:01:52.243Z,88.59
2022-10-02T14:04:53.021Z,88.85
2022-10-02T14:07:38.574Z,88.95
2022-10-02T14:10:15.342Z,89.06
2022-10-02T14:12:57.913Z,89.13
2022-10-02T14:15:36.982Z,88.79
2022-10-02T14:18:30.402Z,88.38
2022-10-02T14:21:08.160Z,87.81
2022-10-02T14:23:52.793Z,88.05
2022-10-02T14:26:33.644Z,88.38
2022-10-02T14:29:20.206Z,88.82
2022-10-02T14:32:11.065Z,88.87
2022-10-02T14:35:00.939Z,88.79
2022-10-02T14:37:50.227Z,88.86
2022-10-02T14:40:20.058Z,88.70
2022-10-02T14:43:21.857Z,88.57
2022-10-02T14:46:08.063Z,88.29
2022-10-02T14:49:06.655Z,88.57
2022-10-02T14:52:05.367Z,88.59
2022-10-02T14:54:50.077Z,88.67
2022-10-02T14:57:34.767Z,89.04
2022-10-02T15:00:15.746Z,88.96
2022-10-02T15:03:11.080Z,89.02
2022-10-02T15:05:49.189Z,89.00
2022-10-02T15:08:23.248Z,88.86
2022-10-02T15:10:52.758Z,88.78
2022-10-02T15:13:34.792Z,88.98
2022-10-02T15:16:32.479Z,89.11
2022-10-02T15:19:10.812Z,88.89
2022-10-02T15:21:46.931Z,88.78
2022-10-02T15:24:30.041Z,88.85
2022-10-02T15:27:08.676Z,88.95
2022-10-02T15:29:47.120Z,89.11
2022-10-02T15:32:54.680Z,89.35
2022-10-02T15:35:32.220Z,89.06
2022-10-02T15:38:26.729Z,89.19
2022-10-02T15:41:19.251Z,89.42
2022-10-02T15:43:56.326Z,89.03
2022-10-02T15:46:33.208Z,89.24
2022-10-02T15:49:07.946Z,89.23
2022-10-02T15:52:02.484Z,88.99
2022-10-02T15:54:46.792Z,88.76
2022-10-02T15:57:43.819Z,89.14
2022-10-02T16:00:18.123Z,88.93
2022-10-02T16:02:58.344Z,88.69
2022-10-02T16:05:44.377Z,89.28
2022-10-02T16:08:48.700Z,89.33
2022-10-02T16:11:50.056Z,89.35
2022-10-02T16:14:26.112Z,89.53
2022-10-02T16:17:29.936Z,89.31
2022-10-02T16:20:16.453Z,89.16
2022-10-02T16:23:03.652Z,89.38
2022-10-02T16:25:49.272Z,89.18
2022-10-02T16:28:32.786Z,89.23
2022-10-02T16:31:27.882Z,89.64
2022-10-02T16:34:02.470Z,89.44
2022-10-02T16:36:42.751Z,89.55
2022-10-02T16:39:37.077Z,89.66
2022-10-02T16:42:21.072Z,89.76
2022-10-02T16:45:13.851Z,89.76
2022-10-02T16:47:50.285Z,89.35
2022-10-02T16:50:25.012Z,89.64
2022-10-02T16:52:59.387Z,89.91
2022-10-02T16:55:33.687Z,90.07
2022-10-02T16:58:21.389Z,90.10
2022-10-02T17:00:59.264Z,90.05
2022-10-02T17:03:35.769Z,90.24
2022-10-02T17:06:10.964Z,90.26
2022-10-02T17:08:45.269Z,90.16
2022-10-02T17:11:21.596Z,90.74
2022-10-02T17:14:03.494Z,90.53
2022-10-02T17:16:41.457Z,90.62
2022-10-02T17:19:25.638Z,90.73
2022-10-02T17:22:00.383Z,90.67
2022-10-02T17:24:42.678Z,90.76
2022-10-02T17:27:17.162Z,90.70
2022-10-02T17:29:58.790Z,90.77
2022-10-02T17:32:48.337Z,90.77
2022-10-02T17:35:18.695Z,90.75
2022-10-02T17:38:20.663Z,91.29
2022-10-02T17:40:55.928Z,91.29
2022-10-02T17:43:31.590Z,90.96
2022-10-02T17:46:20.473Z,90.96
2022-10-02T17:48:58.953Z,91.44
2022-10-02T17:51:52.504Z,91.45
2022-10-02T17:55:02.697Z,91.39
2022-10-02T17:57:43.063Z,91.48
2022-10-02T18:00:18.657Z,91.40
2022-10-02T18:03:03.431Z,91.66
2022-10-02T18:05:49.922Z,91.82
2022-10-02T18:08:40.402Z,91.81
2022-10-02T18:11:13.903Z,91.77
2022-10-02T18:14:04.537Z,92.14
2022-10-02T18:16:45.668Z,91.90
2022-10-02T18:19:27.815Z,92.24
2022-10-02T18:22:11.925Z,92.32
2022-10-02T18:24:53.602Z,92.14
2022-10-02T18:27:38.500Z,92.15
2022-10-02T18:30:15.375Z,92.40
2022-10-02T18:33:26.051Z,92.84
2022-10-02T18:36:10.814Z,92.50
2022-10-02T18:38:54.608Z,92.64
2022-10-02T18:41:43.926Z,92.56
2022-10-02T18:44:33.569Z,92.47
2022-10-02T18:47:11.674Z,92.26
2022-10-02T18:49:51.810Z,92.54
2022-10-02T18:52:59.969Z,92.81
2022-10-02T18:56:03.623Z,93.02
2022-10-02T18:58:44.520Z,92.68
2022-10-02T19:01:36.322Z,93.02
2022-10-02T19:04:27.444Z,93.02
2022-10-02T19:07:03.690Z,92.87
2022-10-02T19:09:32.636Z,92.96
2022-10-02T19:12:06.473Z,92.78
2022-10-02T19:14:41.246Z,92.85
2022-10-02T19:17:15.263Z,92.57
2022-10-02T19:19:44.715Z,92.42
2022-10-02T19:22:19.808Z,92.71
2022-10-02T19:24:52.117Z,92.87
2022-10-02T19:27:26.184Z,92.84
2022-10-02T19:29:58.763Z,92.97
2022-10-02T19:32:31.193Z,92.76
2022-10-02T19:35:03.772Z,93.21
2022-10-02T19:37:33.274Z,93.55
2022-10-02T19:40:04.545Z,93.51
2022-10-02T19:42:47.394Z,93.35
2022-10-02T19:45:26.828Z,93.60
2022-10-02T19:47:59.761Z,93.51
2022-10-02T19:50:39.861Z,93.58
2022-10-02T19:53:24.081Z,93.86
2022-10-02T19:55:56.602Z,93.41
2022-10-02T19:58:32.662Z,93.73
2022-10-02T20:01:03.148Z,93.43
2022-10-02T20:03:33.354Z,93.21
2022-10-02T20:06:10.646Z,93.40
2022-10-02T20:08:43.702Z,93.48
2022-10-02T20:11:18.593Z,93.64
2022-10-02T20:13:53.857Z,93.75
2022-10-02T20:16:43.312Z,93.86
2022-10-02T20:19:17.944Z,93.89
2022-10-02T20:21:49.555Z,93.61
2022-10-02T20:24:23.891Z,93.82
2022-10-02T20:26:56.154Z,93.72
2022-10-02T20:29:32.061Z,94.12
2022-10-02T20:32:07.718Z,93.97
2022-10-02T20:34:46.199Z,93.92
2022-10-02T20:37:18.671Z,94.30
2022-10-02T20:39:55.212Z,93.97
2022-10-02T20:42:30.675Z,94.13
2022-10-02T20:44:59.089Z,94.13
2022-10-02T20:48:20.876Z,94.69
2022-10-02T20:50:59.014Z,94.14
2022-10-02T20:53:59.853Z,94.18
2022-10-02T20:56:53.533Z,94.32
2022-10-02T21:00:00.844Z,94.28
2022-10-02T21:02:46.120Z,94.47
2022-10-02T21:05:54.742Z,94.67
2022-10-02T21:08:41.738Z,94.42
2022-10-02T21:11:20.046Z,94.49
2022-10-02T21:14:21.737Z,94.59
2022-10-02T21:17:30.540Z,94.92
2022-10-02T21:20:50.854Z,94.79
2022-10-02T21:24:03.006Z,95.12
2022-10-02T21:27:16.106Z,94.83
2022-10-02T21:29:56.597Z,94.57
2022-10-02T21:32:57.523Z,94.60
2022-10-02T21:35:39.408Z,94.47
2022-10-02T21:38:32.201Z,94.37
2022-10-02T21:41:51.632Z,94.74
2022-10-02T21:45:03.515Z,94.48
2022-10-02T21:48:13.760Z,94.77
2022-10-02T21:51:15.422Z,94.51
2022-10-02T21:54:38.214Z,94.74
2022-10-02T21:57:32.068Z,94.69
2022-10-02T22:00:15.329Z,94.79
2022-10-02T22:03:21.798Z,94.97
2022-10-02T22:06:10.577Z,94.90
2022-10-02T22:08:55.053Z,94.96
2022-10-02T22:11:33.393Z,94.84
2022-10-02T22:14:08.575Z,94.89
2022-10-02T22:16:48.450Z,94.85
2022-10-02T22:19:37.503Z,94.73
2022-10-02T22:22:18.450Z,94.97
2022-10-02T22:25:08.393Z,95.13
2022-10-02T22:28:00.905Z,95.26
2022-10-02T22:30:31.178Z,95.32
2022-10-02T22:33:19.730Z,95.47
2022-10-02T22:36:18.731Z,95.39
2022-10-02T22:38:50.687Z,95.22
2022-10-02T22:41:27.553Z,95.22
2022-10-02T22:43:59.966Z,95.14
2022-10-02T22:46:40.985Z,95.36
2022-10-02T22:49:20.632Z,95.37
2022-10-02T22:52:00.362Z,95.58
2022-10-02T22:54:36.777Z,95.07
2022-10-02T22:57:15.667Z,95.21
2022-10-02T22:59:50.677Z,95.22
2022-10-02T23:02:25.572Z,95.08
2022-10-02T23:05:00.194Z,95.05
2022-10-02T23:07:37.867Z,95.01
2022-10-02T23:10:18.215Z,95.12
2022-10-02T23:12:58.577Z,95.46
2022-10-02T23:15:36.120Z,95.49
2022-10-02T23:18:13.300Z,95.45
2022-10-02T23:20:47.776Z,95.73
2022-10-02T23:23:23.372Z,95.55
2022-10-02T23:25:57.422Z,95.84
2022-10-02T23:28:30.314Z,96.06
2022-10-02T23:31:08.536Z,95.90
2022-10-02T23:33:48.169Z,96.03
2022-10-02T23:36:25.330Z,96.02
2022-10-02T23:39:04.771Z,95.80
2022-10-02T23:41:40.742Z,95.92
2022-10-02T23:44:28.831Z,96.09
2022-10-02T23:47:14.744Z,96.09
2022-10-02T23:49:47.611Z,96.00
2022-10-02T23:52:43.373Z,96.01
2022-10-02T23:55:39.587Z,96.16
2022-10-02T23:58:29.348Z,95.87
